Time,TemperatureF,DewpointF,PressureIn,WindDirection,WindDirectionDegrees,WindSpeedMPH,WindSpeedGustMPH,Humidity,HourlyPrecipIn,Conditions,Clouds,dailyrainin,SolarRadiationWatts/m^2,SoftwareType,DateUTC
2013-02-19 00:33:00,49.0,32.0,-100.00,NW,326,9.0,15.0,51,0.00,,,-99.99,0.000000,,2013-02-19 06:33:00,
2013-02-19 00:42:00,49.0,32.0,-100.00,NW,326,9.0,15.0,51,0.00,,,-99.99,0.000000,,2013-02-19 06:42:00,
2013-02-19 00:52:00,49.0,32.0,-100.00,NW,326,9.0,15.0,51,0.00,,,-99.99,0.000000,,2013-02-19 06:52:00,
2013-02-19 01:01:00,49.0,32.0,-100.00,NW,326,9.0,15.0,51,0.00,,,-99.99,0.000000,,2013-02-19 07:01:00,
2013-02-19 01:02:00,46.0,29.0,-100.00,NNW,345,6.0,15.0,51,0.00,,,0.00,0.000000,,2013-02-19 07:02:00,
2013-02-19 01:32:00,46.0,29.0,-100.00,NNW,345,6.0,15.0,51,0.00,,,0.00,0.000000,,2013-02-19 07:32:00,
2013-02-19 01:42:00,46.0,29.0,-100.00,NNW,345,6.0,15.0,51,0.00,,,0.00,0.000000,,2013-02-19 07:42:00,
2013-02-19 01:52:00,46.0,29.0,-100.00,NNW,345,6.0,15.0,51,0.00,,,0.00,0.000000,,2013-02-19 07:52:00,
2013-02-19 02:32:00,45.0,24.0,-100.00,NNW,348,7.0,14.0,44,0.00,,,0.00,0.000000,,2013-02-19 08:32:00,
2013-02-19 02:42:00,45.0,24.0,-100.00,NNW,348,7.0,14.0,44,0.00,,,0.00,0.000000,,2013-02-19 08:42:00,
2013-02-19 02:52:00,45.0,24.0,-100.00,NNW,348,7.0,14.0,44,0.00,,,0.00,0.000000,,2013-02-19 08:52:00,
2013-02-19 03:01:00,45.0,24.0,-100.00,NNW,348,7.0,14.0,44,0.00,,,0.00,0.000000,,2013-02-19 09:01:00,
2013-02-19 03:32:00,42.0,22.0,-100.00,NNE,15,5.0,12.0,45,0.00,,,-99.99,0.000000,,2013-02-19 09:32:00,
2013-02-19 03:42:00,42.0,22.0,-100.00,NNE,15,5.0,12.0,45,0.00,,,-99.99,0.000000,,2013-02-19 09:42:00,
2013-02-19 03:53:00,42.0,22.0,-100.00,NNE,15,5.0,12.0,45,0.00,,,-99.99,0.000000,,2013-02-19 09:53:00,
2013-02-19 04:01:00,42.0,22.0,-100.00,NNE,15,5.0,12.0,45,0.00,,,-99.99,0.000000,,2013-02-19 10:01:00,
2013-02-19 04:32:00,40.0,21.0,-100.00,NNW,334,4.0,9.0,46,0.00,,,0.00,0.000000,,2013-02-19 10:32:00,
2013-02-19 04:42:00,40.0,21.0,-100.00,NNW,334,4.0,9.0,46,0.00,,,0.00,0.000000,,2013-02-19 10:42:00,
2013-02-19 04:52:00,40.0,21.0,-100.00,NNW,334,4.0,9.0,46,0.00,,,0.00,0.000000,,2013-02-19 10:52:00,
2013-02-19 05:01:00,40.0,21.0,-100.00,NNW,334,4.0,9.0,46,0.00,,,0.00,0.000000,,2013-02-19 11:01:00,
2013-02-19 05:22:00,38.0,21.0,-100.00,NW,319,3.0,9.0,49,0.00,,,0.00,0.000000,,2013-02-19 11:22:00,
2013-02-19 05:32:00,38.0,21.0,-100.00,NW,319,3.0,9.0,49,0.00,,,0.00,0.000000,,2013-02-19 11:32:00,
2013-02-19 05:42:00,38.0,21.0,-100.00,NW,319,3.0,9.0,49,0.00,,,0.00,0.000000,,2013-02-19 11:42:00,
2013-02-19 05:52:00,38.0,21.0,-100.00,NW,319,3.0,9.0,49,0.00,,,0.00,0.000000,,2013-02-19 11:52:00,
2013-02-19 06:01:00,38.0,21.0,-100.00,NW,319,3.0,9.0,49,0.00,,,0.00,0.000000,,2013-02-19 12:01:00,
2013-02-19 06:02:00,33.0,23.0,-100.00,SW,224,2.0,4.0,67,0.00,,,0.00,0.000000,,2013-02-19 12:02:00,
2013-02-19 06:32:00,33.0,23.0,-100.00,SW,224,2.0,4.0,67,0.00,,,0.00,0.000000,,2013-02-19 12:32:00,
2013-02-19 06:42:00,33.0,23.0,-100.00,SW,224,2.0,4.0,67,0.00,,,0.00,0.000000,,2013-02-19 12:42:00,
2013-02-19 06:52:00,33.0,23.0,-100.00,SW,224,2.0,4.0,67,0.00,,,0.00,0.000000,,2013-02-19 12:52:00,
2013-02-19 07:32:00,30.0,25.0,-100.00,East,101,1.0,3.0,81,0.00,,,0.00,1.000000,,2013-02-19 13:32:00,
2013-02-19 07:42:00,30.0,25.0,-100.00,East,101,1.0,3.0,81,0.00,,,0.00,1.000000,,2013-02-19 13:42:00,
2013-02-19 07:52:00,30.0,25.0,-100.00,East,101,1.0,3.0,81,0.00,,,0.00,1.000000,,2013-02-19 13:52:00,
2013-02-19 08:01:00,30.0,25.0,-100.00,East,101,1.0,3.0,81,0.00,,,0.00,1.000000,,2013-02-19 14:01:00,
2013-02-19 08:33:00,37.0,28.0,-100.00,NNE,14,1.0,3.0,69,0.00,,,0.00,67.000000,,2013-02-19 14:33:00,
2013-02-19 08:42:00,37.0,28.0,-100.00,NNE,14,1.0,3.0,69,0.00,,,0.00,67.000000,,2013-02-19 14:42:00,
2013-02-19 08:52:00,37.0,28.0,-100.00,NNE,14,1.0,3.0,69,0.00,,,0.00,67.000000,,2013-02-19 14:52:00,
2013-02-19 09:01:00,37.0,28.0,-100.00,NNE,14,1.0,3.0,69,0.00,,,0.00,67.000000,,2013-02-19 15:01:00,
2013-02-19 09:02:00,47.0,21.0,-100.00,NNE,32,5.0,10.0,36,0.00,,,0.00,308.000000,,2013-02-19 15:02:00,
2013-02-19 09:22:00,47.0,21.0,-100.00,NNE,32,5.0,10.0,36,0.00,,,0.00,308.000000,,2013-02-19 15:22:00,
2013-02-19 09:32:00,47.0,21.0,-100.00,NNE,32,5.0,10.0,36,0.00,,,0.00,308.000000,,2013-02-19 15:32:00,
2013-02-19 11:21:00,53.0,19.0,-100.00,NNE,25,5.0,12.0,26,-99.99,,,0.00,714.000000,,2013-02-19 17:21:00,
2013-02-19 11:32:00,53.0,19.0,-100.00,NNE,25,5.0,12.0,26,-99.99,,,0.00,714.000000,,2013-02-19 17:32:00,
2013-02-19 11:42:00,53.0,19.0,-100.00,NNE,25,5.0,12.0,26,-99.99,,,0.00,714.000000,,2013-02-19 17:42:00,
2013-02-19 11:52:00,53.0,19.0,-100.00,NNE,25,5.0,12.0,26,-99.99,,,0.00,714.000000,,2013-02-19 17:52:00,
2013-02-19 12:01:00,53.0,19.0,-100.00,NNE,25,5.0,12.0,26,-99.99,,,0.00,714.000000,,2013-02-19 18:01:00,
2013-02-19 12:21:00,56.0,19.0,-100.00,West,280,5.0,10.0,23,0.00,,,0.00,831.000000,,2013-02-19 18:21:00,
2013-02-19 12:32:00,56.0,19.0,-100.00,West,280,5.0,10.0,23,0.00,,,0.00,831.000000,,2013-02-19 18:32:00,
2013-02-19 12:42:00,56.0,19.0,-100.00,West,280,5.0,10.0,23,0.00,,,0.00,831.000000,,2013-02-19 18:42:00,
2013-02-19 12:52:00,56.0,19.0,-100.00,West,280,5.0,10.0,23,0.00,,,0.00,831.000000,,2013-02-19 18:52:00,
2013-02-19 13:01:00,56.0,19.0,-100.00,West,280,5.0,10.0,23,0.00,,,0.00,831.000000,,2013-02-19 19:01:00,
2013-02-19 13:22:00,58.0,19.0,-100.00,WNW,285,7.0,12.0,22,0.00,,,0.00,878.000000,,2013-02-19 19:22:00,
2013-02-19 13:32:00,58.0,19.0,-100.00,WNW,285,7.0,12.0,22,0.00,,,0.00,878.000000,,2013-02-19 19:32:00,
2013-02-19 13:42:00,58.0,19.0,-100.00,WNW,285,7.0,12.0,22,0.00,,,0.00,878.000000,,2013-02-19 19:42:00,
2013-02-19 13:52:00,58.0,19.0,-100.00,WNW,285,7.0,12.0,22,0.00,,,0.00,878.000000,,2013-02-19 19:52:00,
2013-02-19 14:01:00,58.0,19.0,-100.00,WNW,285,7.0,12.0,22,0.00,,,0.00,878.000000,,2013-02-19 20:01:00,
2013-02-19 14:02:00,60.0,19.0,-100.00,WNW,293,7.0,13.0,20,0.00,,,-99.99,842.000000,,2013-02-19 20:02:00,
2013-02-19 14:22:00,60.0,19.0,-100.00,WNW,293,7.0,13.0,20,0.00,,,-99.99,842.000000,,2013-02-19 20:22:00,
2013-02-19 14:32:00,60.0,19.0,-100.00,WNW,293,7.0,13.0,20,0.00,,,-99.99,842.000000,,2013-02-19 20:32:00,
2013-02-19 14:42:00,60.0,19.0,-100.00,WNW,293,7.0,13.0,20,0.00,,,-99.99,842.000000,,2013-02-19 20:42:00,
2013-02-19 14:52:00,60.0,19.0,-100.00,WNW,293,7.0,13.0,20,0.00,,,-99.99,842.000000,,2013-02-19 20:52:00,
2013-02-19 15:02:00,61.0,16.0,-100.00,NNW,330,6.0,13.0,17,0.00,,,0.00,728.000000,,2013-02-19 21:02:00,
2013-02-19 15:32:00,61.0,16.0,-100.00,NNW,330,6.0,13.0,17,0.00,,,0.00,728.000000,,2013-02-19 21:32:00,
2013-02-19 15:42:00,61.0,16.0,-100.00,NNW,330,6.0,13.0,17,0.00,,,0.00,728.000000,,2013-02-19 21:42:00,
2013-02-19 15:52:00,61.0,16.0,-100.00,NNW,330,6.0,13.0,17,0.00,,,0.00,728.000000,,2013-02-19 21:52:00,
2013-02-19 16:32:00,60.0,16.0,-100.00,NE,36,5.0,10.0,18,0.00,,,0.00,517.000000,,2013-02-19 22:32:00,
2013-02-19 16:42:00,60.0,16.0,-100.00,NE,36,5.0,10.0,18,0.00,,,0.00,517.000000,,2013-02-19 22:42:00,
2013-02-19 16:52:00,60.0,16.0,-100.00,NE,36,5.0,10.0,18,0.00,,,0.00,517.000000,,2013-02-19 22:52:00,
2013-02-19 17:01:00,60.0,16.0,-100.00,NE,36,5.0,10.0,18,0.00,,,0.00,517.000000,,2013-02-19 23:01:00,
2013-02-19 17:32:00,58.0,17.0,-100.00,NE,41,5.0,9.0,20,0.00,,,0.00,275.000000,,2013-02-19 23:32:00,
2013-02-19 17:42:00,58.0,17.0,-100.00,NE,41,5.0,9.0,20,0.00,,,0.00,275.000000,,2013-02-19 23:42:00,
2013-02-19 17:52:00,58.0,17.0,-100.00,NE,41,5.0,9.0,20,0.00,,,0.00,275.000000,,2013-02-19 23:52:00,
2013-02-19 18:01:00,58.0,17.0,-100.00,NE,41,5.0,9.0,20,0.00,,,0.00,275.000000,,2013-02-20 00:01:00,
2013-02-19 18:02:00,53.0,19.0,-100.00,NE,37,3.0,9.0,26,0.00,,,0.00,72.000000,,2013-02-20 00:02:00,
2013-02-19 18:32:00,53.0,19.0,-100.00,NE,37,3.0,9.0,26,0.00,,,0.00,72.000000,,2013-02-20 00:32:00,
2013-02-19 18:42:00,53.0,19.0,-100.00,NE,37,3.0,9.0,26,0.00,,,0.00,72.000000,,2013-02-20 00:42:00,
2013-02-19 18:52:00,53.0,19.0,-100.00,NE,37,3.0,9.0,26,0.00,,,0.00,72.000000,,2013-02-20 00:52:00,
2013-02-19 19:32:00,46.0,25.0,-100.00,ENE,59,2.0,4.0,43,0.00,,,0.00,1.000000,,2013-02-20 01:32:00,
2013-02-19 19:42:00,46.0,25.0,-100.00,ENE,59,2.0,4.0,43,0.00,,,0.00,1.000000,,2013-02-20 01:42:00,
2013-02-19 19:52:00,46.0,25.0,-100.00,ENE,59,2.0,4.0,43,0.00,,,0.00,1.000000,,2013-02-20 01:52:00,
2013-02-19 20:01:00,46.0,25.0,-100.00,ENE,59,2.0,4.0,43,0.00,,,0.00,1.000000,,2013-02-20 02:01:00,
2013-02-19 20:22:00,42.0,24.0,-100.00,East,91,3.0,4.0,49,0.00,,,0.00,0.000000,,2013-02-20 02:22:00,
2013-02-19 20:32:00,42.0,24.0,-100.00,East,91,3.0,4.0,49,0.00,,,0.00,0.000000,,2013-02-20 02:32:00,
2013-02-19 20:42:00,42.0,24.0,-100.00,East,91,3.0,4.0,49,0.00,,,0.00,0.000000,,2013-02-20 02:42:00,
2013-02-19 20:52:00,42.0,24.0,-100.00,East,91,3.0,4.0,49,0.00,,,0.00,0.000000,,2013-02-20 02:52:00,
2013-02-19 21:01:00,42.0,24.0,-100.00,East,91,3.0,4.0,49,0.00,,,0.00,0.000000,,2013-02-20 03:01:00,
2013-02-19 21:22:00,39.0,27.0,-100.00,NNE,26,2.0,4.0,63,0.00,,,0.00,0.000000,,2013-02-20 03:22:00,
2013-02-19 21:32:00,39.0,27.0,-100.00,NNE,26,2.0,4.0,63,0.00,,,0.00,0.000000,,2013-02-20 03:32:00,
2013-02-19 21:42:00,39.0,27.0,-100.00,NNE,26,2.0,4.0,63,0.00,,,0.00,0.000000,,2013-02-20 03:42:00,
2013-02-19 21:52:00,39.0,27.0,-100.00,NNE,26,2.0,4.0,63,0.00,,,0.00,0.000000,,2013-02-20 03:52:00,
2013-02-19 22:01:00,39.0,27.0,-100.00,NNE,26,2.0,4.0,63,0.00,,,0.00,0.000000,,2013-02-20 04:01:00,
2013-02-19 22:02:00,37.0,24.0,-100.00,ESE,103,3.0,4.0,60,0.00,,,0.00,0.000000,,2013-02-20 04:02:00,
2013-02-19 22:32:00,37.0,24.0,-100.00,ESE,103,3.0,4.0,60,0.00,,,0.00,0.000000,,2013-02-20 04:32:00,
2013-02-19 22:42:00,37.0,24.0,-100.00,ESE,103,3.0,4.0,60,0.00,,,0.00,0.000000,,2013-02-20 04:42:00,
2013-02-19 22:52:00,37.0,24.0,-100.00,ESE,103,3.0,4.0,60,0.00,,,0.00,0.000000,,2013-02-20 04:52:00,
2013-02-19 23:22:00,38.0,25.0,-100.00,SE,134,2.0,5.0,58,0.00,,,0.00,0.000000,,2013-02-20 05:22:00,
2013-02-19 23:32:00,38.0,25.0,-100.00,SE,134,2.0,5.0,58,0.00,,,0.00,0.000000,,2013-02-20 05:32:00,
2013-02-19 23:43:00,38.0,25.0,-100.00,SE,134,2.0,5.0,58,0.00,,,0.00,0.000000,,2013-02-20 05:43:00,
2013-02-19 23:52:00,38.0,25.0,-100.00,SE,134,2.0,5.0,58,0.00,,,0.00,0.000000,,2013-02-20 05:52:00,